Time;durP1;ratioP1;P1;durP2;ratioP2;P2;SDS_P1;SDS_P2;PMS_P1;PMS_P2;Temp;Humidity;BMP_temperature;BMP_pressure;BME280_temperature;BME280_humidity;BME280_pressure;Samples;Min_cycle;Max_cycle;Signal;HPM_P1;HPM_P2
2022/05/10 00:00:14;;;;;;;;;24.50;24.50;;;;;19.23;54.12;101505.88;5009173;28;46147;-87
2022/05/10 00:02:39;;;;;;;;;24.50;23.00;;;;;19.25;54.10;101516.56;5012291;28;45641;-86
2022/05/10 00:05:06;;;;;;;;;25.50;22.25;;;;;19.21;54.57;101504.28;5011872;28;45579;-86
2022/05/10 00:07:34;;;;;;;;;23.25;21.75;;;;;19.19;54.59;101515.19;5009488;28;45849;-86
2022/05/10 00:09:59;;;;;;;;;25.00;23.50;;;;;19.10;54.73;101511.41;5011963;28;45620;-86
2022/05/10 00:12:25;;;;;;;;;25.75;25.50;;;;;19.06;54.77;101509.06;5010526;28;45704;-87
2022/05/10 00:14:50;;;;;;;;;27.00;22.75;;;;;18.99;55.02;101497.03;5006900;28;45882;-92
2022/05/10 00:17:35;;;;;;;;;29.25;26.75;;;;;19.05;55.01;101502.81;5010006;28;45715;-91
2022/05/10 00:20:02;;;;;;;;;24.50;23.75;;;;;19.02;55.29;101505.72;5011201;28;45620;-93
2022/05/10 00:22:27;;;;;;;;;23.50;21.75;;;;;19.00;55.52;101507.72;5013209;28;45286;-92
2022/05/10 00:24:53;;;;;;;;;26.25;24.00;;;;;18.81;55.82;101484.03;5006761;28;45467;-91
2022/05/10 00:27:18;;;;;;;;;24.00;24.00;;;;;18.83;55.45;101483.91;5014103;28;48174;-92
2022/05/10 00:29:43;;;;;;;;;28.25;26.00;;;;;18.98;55.74;101501.59;5013726;28;46313;-91
2022/05/10 00:32:09;;;;;;;;;26.00;26.00;;;;;18.98;55.57;101500.69;5014221;28;45535;-88
2022/05/10 00:34:35;;;;;;;;;30.25;27.50;;;;;18.98;55.64;101506.97;5011434;28;45514;-89
2022/05/10 00:37:01;;;;;;;;;29.00;26.75;;;;;18.69;56.04;101474.19;5011048;28;45605;-88
2022/05/10 00:39:26;;;;;;;;;27.25;24.00;;;;;18.79;55.87;101496.78;5009046;28;45340;-87
2022/05/10 00:41:58;;;;;;;;;26.25;25.50;;;;;18.72;56.23;101498.22;5010405;28;46354;-86
2022/05/10 00:44:30;;;;;;;;;27.50;27.50;;;;;18.73;56.40;101498.06;5012121;28;45279;-85
2022/05/10 00:47:20;;;;;;;;;22.75;22.50;;;;;18.78;56.11;101499.59;5014412;28;45527;-90
2022/05/10 00:50:07;;;;;;;;;26.75;23.25;;;;;18.66;56.63;101480.66;5011857;28;46635;-87
2022/05/10 00:52:55;;;;;;;;;29.00;29.00;;;;;18.68;56.70;101496.72;5010749;28;45447;-89
2022/05/10 00:55:31;;;;;;;;;24.75;24.50;;;;;18.59;56.72;101479.44;5005264;28;45405;-88
2022/05/10 00:58:09;;;;;;;;;28.00;26.00;;;;;18.60;56.78;101474.91;5007157;28;45365;-88
2022/05/10 01:00:35;;;;;;;;;27.50;26.25;;;;;18.58;56.95;101472.31;5005510;28;46452;-89
2022/05/10 01:03:12;;;;;;;;;29.00;26.75;;;;;18.55;56.87;101475.25;5013816;28;45405;-89
2022/05/10 01:05:44;;;;;;;;;29.75;26.25;;;;;18.50;57.31;101478.31;5013957;28;45452;-89
2022/05/10 01:08:21;;;;;;;;;25.00;24.50;;;;;18.45;57.60;101471.56;5011818;28;45365;-89
2022/05/10 01:10:59;;;;;;;;;28.50;26.00;;;;;18.44;57.68;101472.53;5013271;28;45386;-89
2022/05/10 01:13:30;;;;;;;;;29.75;27.75;;;;;18.24;57.83;101447.13;5008985;28;45365;-89
2022/05/10 01:16:16;;;;;;;;;24.75;23.00;;;;;18.38;57.98;101470.31;5007435;28;45498;-90
2022/05/10 01:18:42;;;;;;;;;30.00;30.00;;;;;18.36;57.78;101467.75;5012441;28;45538;-88
2022/05/10 01:21:41;;;;;;;;;32.25;29.00;;;;;18.40;58.02;101468.34;5013297;28;45417;-88
2022/05/10 01:24:28;;;;;;;;;28.50;26.00;;;;;18.39;58.12;101455.84;5003297;28;45329;-88
2022/05/10 01:27:19;;;;;;;;;32.25;29.00;;;;;18.24;58.29;101434.50;5006865;28;45377;-90
2022/05/10 01:30:05;;;;;;;;;30.75;26.75;;;;;18.37;58.29;101447.03;4942512;28;45396;-87
2022/05/10 01:35:41;;;;;;;;;29.50;25.00;;;;;18.35;58.35;101451.66;4918278;28;45349;-87
2022/05/10 01:38:31;;;;;;;;;29.75;27.75;;;;;18.20;58.36;101442.94;4934375;28;45456;-86
2022/05/10 01:41:19;;;;;;;;;38.50;31.00;;;;;18.27;58.72;101454.97;4934092;28;45474;-87
2022/05/10 01:43:52;;;;;;;;;30.75;29.50;;;;;18.14;58.94;101438.91;4933294;28;45430;-86
2022/05/10 01:46:25;;;;;;;;;29.00;29.00;;;;;18.27;58.78;101449.56;4933009;28;45436;-85
2022/05/10 01:48:55;;;;;;;;;31.00;28.00;;;;;18.32;58.64;101444.69;4936151;28;45411;-85
2022/05/10 01:51:33;;;;;;;;;30.25;27.75;;;;;18.35;58.47;101446.28;4936236;28;45422;-86
2022/05/10 01:53:59;;;;;;;;;31.25;29.75;;;;;18.33;58.65;101438.34;4934953;28;46189;-85
2022/05/10 01:56:28;;;;;;;;;29.75;27.25;;;;;18.30;58.71;101438.53;4936147;28;45551;-85
2022/05/10 01:58:54;;;;;;;;;29.50;27.25;;;;;18.23;59.26;101429.22;4935924;28;45483;-85
2022/05/10 02:01:38;;;;;;;;;29.50;28.75;;;;;18.12;59.50;101440.00;4935154;28;45624;-85
2022/05/10 02:04:20;;;;;;;;;26.75;26.50;;;;;18.07;59.57;101438.50;4935034;28;46381;-84
2022/05/10 02:06:48;;;;;;;;;31.50;29.50;;;;;18.09;59.58;101441.09;4974891;28;47785;-83
2022/05/10 02:09:39;;;;;;;;;36.25;34.50;;;;;18.04;59.81;101432.50;5016988;28;45570;-84
2022/05/10 02:12:14;;;;;;;;;28.00;28.00;;;;;17.98;60.04;101425.72;5017061;28;45500;-83
2022/05/10 02:14:56;;;;;;;;;35.00;31.50;;;;;18.01;60.10;101435.41;5001264;28;45416;-84
2022/05/10 02:17:37;;;;;;;;;28.25;28.25;;;;;18.02;59.97;101434.44;5016704;28;45490;-84
2022/05/10 02:20:09;;;;;;;;;33.75;31.25;;;;;18.00;60.02;101428.31;5016971;28;45427;-84
2022/05/10 02:22:47;;;;;;;;;34.50;31.75;;;;;18.01;59.98;101428.16;5016544;28;45543;-83
2022/05/10 02:25:42;;;;;;;;;30.00;29.25;;;;;18.07;59.80;101427.72;5016382;28;46338;-88
2022/05/10 02:28:38;;;;;;;;;31.00;30.25;;;;;18.08;59.72;101425.88;5009180;28;45486;-89
2022/05/10 02:31:14;;;;;;;;;32.25;32.25;;;;;18.01;59.94;101419.25;5016958;28;45385;-89
2022/05/10 02:33:42;;;;;;;;;28.75;28.75;;;;;17.97;59.95;101431.25;5017441;28;45444;-90
2022/05/10 02:36:07;;;;;;;;;34.75;32.75;;;;;17.83;60.29;101403.50;5016964;28;45409;-90
2022/05/10 02:38:37;;;;;;;;;33.25;31.00;;;;;17.84;60.61;101421.38;5017127;28;45390;-90
2022/05/10 02:41:10;;;;;;;;;31.50;31.50;;;;;17.81;60.45;101413.53;5017839;28;45398;-90
2022/05/10 02:43:53;;;;;;;;;32.25;31.25;;;;;17.87;60.89;101422.97;5018202;28;45448;-92
2022/05/10 02:46:19;;;;;;;;;32.00;31.00;;;;;17.81;60.93;101416.22;5019025;28;46045;-92
2022/05/10 02:48:47;;;;;;;;;29.50;29.50;;;;;17.84;60.85;101417.84;5017545;28;45358;-92
2022/05/10 02:51:12;;;;;;;;;34.25;32.50;;;;;17.84;60.99;101417.84;5017757;28;45405;-92
2022/05/10 02:53:37;;;;;;;;;31.00;29.00;;;;;17.84;61.02;101415.13;5018350;28;45342;-92
2022/05/10 02:56:04;;;;;;;;;27.75;27.75;;;;;17.80;60.99;101419.03;5017881;28;46504;-94
2022/05/10 02:58:30;;;;;;;;;34.25;30.00;;;;;17.81;61.16;101416.22;5017664;28;45380;-95
2022/05/10 03:01:13;;;;;;;;;29.75;27.50;;;;;17.84;61.14;101416.00;5018731;28;45432;-93
2022/05/10 03:03:38;;;;;;;;;30.00;28.75;;;;;17.85;61.02;101412.34;5017487;28;45369;-91
2022/05/10 03:06:03;;;;;;;;;38.00;33.50;;;;;17.87;61.08;101396.94;5015985;28;45397;-84
2022/05/10 03:08:29;;;;;;;;;28.75;27.25;;;;;17.90;60.83;101403.06;5016060;28;45440;-84
2022/05/10 03:10:55;;;;;;;;;34.00;29.75;;;;;17.90;61.20;101401.22;5016633;28;45290;-84
2022/05/10 03:13:20;;;;;;;;;32.25;30.50;;;;;17.82;61.17;101392.84;5015626;28;45434;-85
2022/05/10 03:15:46;;;;;;;;;34.75;31.50;;;;;17.85;61.20;101393.47;5015683;28;45397;-85
2022/05/10 03:18:11;;;;;;;;;28.75;27.25;;;;;17.77;61.10;101385.09;5015766;28;45478;-84
2022/05/10 03:20:36;;;;;;;;;36.50;33.25;;;;;17.89;61.26;101396.78;4999763;28;45353;-85
2022/05/10 03:23:02;;;;;;;;;30.25;28.00;;;;;17.63;61.24;101352.97;5016384;28;45647;-84
2022/05/10 03:25:30;;;;;;;;;33.00;27.25;;;;;17.92;61.18;101396.56;5015662;28;45613;-85
2022/05/10 03:27:58;;;;;;;;;30.25;26.25;;;;;17.94;61.01;101388.34;5015303;28;45327;-85
2022/05/10 03:30:30;;;;;;;;;31.75;31.50;;;;;17.93;61.17;101384.81;5015611;28;45590;-84
2022/05/10 03:32:56;;;;;;;;;33.50;32.50;;;;;17.94;60.97;101385.66;5015719;28;45617;-85
2022/05/10 03:35:21;;;;;;;;;34.50;27.25;;;;;17.87;60.92;101372.69;5015601;28;46205;-85
2022/05/10 03:37:47;;;;;;;;;30.25;28.50;;;;;17.84;60.69;101366.66;5015937;28;45799;-84
2022/05/10 03:40:13;;;;;;;;;30.00;26.25;;;;;17.88;60.88;101373.53;5015455;28;45492;-87
2022/05/10 03:42:51;;;;;;;;;30.75;28.00;;;;;17.94;60.92;101386.50;5015300;28;45566;-85
2022/05/10 03:45:19;;;;;;;;;29.25;25.75;;;;;17.87;60.55;101363.72;5015153;28;45532;-85
2022/05/10 03:47:46;;;;;;;;;30.25;29.50;;;;;17.87;60.58;101361.03;5015398;28;45557;-87
2022/05/10 03:50:14;;;;;;;;;37.00;32.00;;;;;17.98;60.66;101379.94;5015860;28;45313;-87
2022/05/10 03:52:41;;;;;;;;;30.25;27.25;;;;;17.86;60.62;101365.56;5017205;28;45439;-87
2022/05/10 03:55:08;;;;;;;;;29.50;27.00;;;;;17.93;60.58;101374.03;5016100;28;45628;-86
2022/05/10 03:57:33;;;;;;;;;30.75;27.00;;;;;17.84;60.49;101364.81;5011314;28;45422;-87
2022/05/10 03:59:59;;;;;;;;;30.25;30.00;;;;;17.78;60.49;101353.66;5007431;28;45496;-86
2022/05/10 04:02:24;;;;;;;;;29.50;28.50;;;;;17.75;60.43;101346.66;5015280;28;45405;-86
2022/05/10 04:04:50;;;;;;;;;25.75;25.00;;;;;17.88;60.66;101374.38;5015636;28;45791;-86
2022/05/10 04:07:16;;;;;;;;;30.25;27.25;;;;;17.88;60.49;101377.09;5014806;28;45307;-86
2022/05/10 04:09:41;;;;;;;;;29.00;26.25;;;;;17.91;60.19;101370.59;5013851;28;45491;-85
2022/05/10 04:12:07;;;;;;;;;31.25;29.75;;;;;17.87;60.30;101370.00;5014184;28;45302;-86
2022/05/10 04:14:32;;;;;;;;;29.75;26.50;;;;;17.64;60.48;101327.78;5014749;28;46034;-86
2022/05/10 04:16:58;;;;;;;;;30.50;28.00;;;;;17.78;60.19;101359.03;5015009;28;45206;-88
2022/05/10 04:19:23;;;;;;;;;25.25;22.25;;;;;17.78;60.69;101361.72;5009694;28;45636;-88
2022/05/10 04:21:49;;;;;;;;;31.50;27.25;;;;;17.59;60.76;101330.81;5007393;28;45594;-89
2022/05/10 04:24:15;;;;;;;;;29.00;27.75;;;;;17.79;60.68;101372.34;5013977;28;45476;-88
2022/05/10 04:26:40;;;;;;;;;25.50;25.50;;;;;17.70;60.65;101354.22;5010755;28;45484;-88
2022/05/10 04:29:05;;;;;;;;;24.75;24.50;;;;;17.84;60.26;101378.28;5015269;28;45376;-88
2022/05/10 04:31:31;;;;;;;;;28.75;26.00;;;;;17.85;60.36;101371.09;5014679;28;45337;-88
2022/05/10 04:33:56;;;;;;;;;27.50;25.50;;;;;17.78;60.41;101356.34;5014699;28;46099;-88
2022/05/10 04:36:24;;;;;;;;;29.00;26.00;;;;;17.77;60.40;101350.06;5014354;28;45518;-88
2022/05/10 04:38:50;;;;;;;;;27.75;26.00;;;;;17.72;59.93;101352.25;5014148;28;45477;-89
2022/05/10 04:41:26;;;;;;;;;31.50;29.00;;;;;17.87;60.27;101378.06;5014274;28;45390;-88
2022/05/10 04:44:03;;;;;;;;;29.50;28.25;;;;;17.87;59.78;101372.69;5013113;28;45422;-85
2022/05/10 04:46:30;;;;;;;;;23.50;22.25;;;;;17.79;59.98;101358.91;5014416;28;45558;-83
2022/05/10 04:48:56;;;;;;;;;31.50;26.25;;;;;17.93;59.63;101373.19;5006556;28;45552;-82
2022/05/10 04:51:22;;;;;;;;;26.50;24.50;;;;;17.94;59.73;101373.03;5004849;28;45428;-83
2022/05/10 04:53:47;;;;;;;;;28.75;25.25;;;;;17.91;59.56;101375.97;5010588;28;46160;-83
2022/05/10 04:56:13;;;;;;;;;24.25;21.25;;;;;17.87;59.74;101371.81;5014547;28;45300;-83
2022/05/10 04:58:38;;;;;;;;;26.50;24.50;;;;;17.90;59.47;101368.91;5014388;28;45371;-78
2022/05/10 05:01:07;;;;;;;;;25.25;25.25;;;;;17.94;59.43;101375.75;5010651;28;45379;-77
2022/05/10 05:03:33;;;;;;;;;27.25;24.00;;;;;17.92;59.46;101376.84;5013907;28;49691;-78
2022/05/10 05:05:58;;;;;;;;;28.25;27.50;;;;;17.87;59.52;101380.75;5014175;28;45367;-78
2022/05/10 05:08:24;;;;;;;;;26.75;26.75;;;;;17.61;59.78;101319.94;5014294;28;45554;-77
2022/05/10 05:10:50;;;;;;;;;28.00;24.75;;;;;17.90;59.48;101376.97;5014401;28;45687;-77
2022/05/10 05:13:16;;;;;;;;;25.25;24.25;;;;;17.97;59.36;101388.16;5013670;28;47076;-77
2022/05/10 05:15:42;;;;;;;;;23.50;22.75;;;;;17.81;59.57;101356.13;5013228;28;45432;-77
2022/05/10 05:18:08;;;;;;;;;23.75;23.25;;;;;17.93;59.43;101382.13;5013881;28;45425;-77
2022/05/10 05:20:34;;;;;;;;;25.50;24.25;;;;;17.99;59.80;101378.97;5012126;28;45573;-78
2022/05/10 05:23:01;;;;;;;;;29.50;26.00;;;;;17.94;59.21;101364.13;5016333;28;46894;-77
2022/05/10 05:25:26;;;;;;;;;29.75;27.50;;;;;18.07;58.91;101384.59;5017310;28;45542;-77
2022/05/10 05:27:52;;;;;;;;;26.25;25.25;;;;;17.99;58.61;101361.91;5017040;28;45388;-78
2022/05/10 05:30:17;;;;;;;;;25.00;24.50;;;;;18.12;58.69;101391.47;5015591;28;46066;-78
2022/05/10 05:32:42;;;;;;;;;28.00;26.25;;;;;17.97;58.15;101361.22;5013129;28;46418;-78
2022/05/10 05:35:11;;;;;;;;;29.75;27.25;;;;;17.96;58.14;101383.72;5017355;28;45436;-78
2022/05/10 05:37:37;;;;;;;;;24.50;23.75;;;;;17.99;58.59;101381.66;5017879;28;45444;-77
2022/05/10 05:40:13;;;;;;;;;26.00;24.75;;;;;18.06;58.63;101392.78;5017191;28;45476;-77
2022/05/10 05:42:39;;;;;;;;;28.50;25.00;;;;;17.94;58.12;101374.88;5016569;28;47246;-78
2022/05/10 05:45:07;;;;;;;;;30.25;27.50;;;;;18.03;58.11;101388.50;5017142;28;45804;-77
2022/05/10 05:47:32;;;;;;;;;28.50;26.00;;;;;18.08;58.77;101401.63;5016945;28;45397;-78
2022/05/10 05:49:58;;;;;;;;;26.25;26.25;;;;;17.99;58.87;101378.09;5017649;28;45232;-77
2022/05/10 05:52:24;;;;;;;;;23.25;23.25;;;;;18.15;58.36;101402.88;5016439;28;45420;-78
2022/05/10 05:54:50;;;;;;;;;23.50;22.25;;;;;18.06;58.40;101384.72;5016845;28;45305;-77
2022/05/10 05:57:16;;;;;;;;;25.00;22.25;;;;;18.10;58.56;101403.22;5017000;28;45483;-78
2022/05/10 05:59:41;;;;;;;;;23.25;21.75;;;;;18.05;58.26;101385.72;5016645;28;45444;-77
2022/05/10 06:02:18;;;;;;;;;32.25;29.00;;;;;18.17;58.38;101403.63;4999256;28;47197;-77
2022/05/10 06:04:43;;;;;;;;;29.25;26.25;;;;;17.93;57.67;101351.63;5016405;28;45513;-77
2022/05/10 06:07:09;;;;;;;;;24.00;24.00;;;;;18.18;58.05;101402.63;5016639;28;45509;-77
2022/05/10 06:09:38;;;;;;;;;28.50;26.50;;;;;18.16;57.76;101392.94;5016708;28;45539;-77
2022/05/10 06:12:05;;;;;;;;;26.75;24.00;;;;;18.21;57.66;101398.84;5016646;28;46536;-77
2022/05/10 06:14:31;;;;;;;;;27.25;27.25;;;;;18.18;57.75;101388.28;5016489;28;45547;-77
2022/05/10 06:16:57;;;;;;;;;26.75;25.00;;;;;18.28;58.16;101394.72;5017078;28;45396;-77
2022/05/10 06:19:23;;;;;;;;;24.50;22.50;;;;;18.22;57.67;101379.84;5016144;28;45473;-77
2022/05/10 06:21:49;;;;;;;;;24.50;22.25;;;;;18.34;57.26;101393.34;5016284;28;45312;-77
2022/05/10 06:24:15;;;;;;;;;27.25;23.25;;;;;18.29;57.59;101386.47;5014680;28;46424;-77
2022/05/10 06:26:40;;;;;;;;;27.50;26.00;;;;;18.34;57.15;101390.66;5016374;28;45357;-77
2022/05/10 06:29:06;;;;;;;;;24.50;24.50;;;;;18.34;57.20;101393.34;5016867;28;45425;-77
2022/05/10 06:31:31;;;;;;;;;23.50;21.50;;;;;18.38;57.51;101384.91;5014984;28;54650;-77
2022/05/10 06:33:56;;;;;;;;;23.50;22.50;;;;;18.42;57.11;101397.16;5015310;28;45251;-77
2022/05/10 06:36:22;;;;;;;;;23.75;23.50;;;;;18.18;57.02;101347.88;5015994;28;46003;-77
2022/05/10 06:38:47;;;;;;;;;24.50;22.00;;;;;18.30;56.94;101371.16;5016264;28;45215;-78
2022/05/10 06:41:12;;;;;;;;;25.50;24.00;;;;;18.47;57.46;101394.09;5016571;28;45326;-77
2022/05/10 06:43:38;;;;;;;;;20.50;20.50;;;;;18.29;57.01;101370.31;4998564;28;45963;-78
2022/05/10 06:46:16;;;;;;;;;25.00;22.50;;;;;18.51;56.81;101392.88;5015408;28;45498;-78
2022/05/10 06:48:45;;;;;;;;;19.00;18.50;;;;;18.30;56.41;101349.59;5012978;28;45415;-77
2022/05/10 06:51:12;;;;;;;;;23.75;22.00;;;;;18.51;56.82;101377.56;5015030;28;47152;-77
2022/05/10 06:53:37;;;;;;;;;19.75;19.75;;;;;18.52;56.70;101381.97;5015865;28;45382;-77
2022/05/10 06:56:04;;;;;;;;;22.00;20.50;;;;;18.66;56.53;101385.41;5016494;28;45319;-78
2022/05/10 06:58:29;;;;;;;;;22.50;22.50;;;;;18.62;56.80;101374.00;5015819;28;45251;-78
2022/05/10 07:00:55;;;;;;;;;24.50;24.50;;;;;18.76;56.96;101386.44;5015241;28;45655;-78
2022/05/10 07:03:28;;;;;;;;;24.00;24.00;;;;;18.79;56.71;101385.34;5015468;28;45613;-78
2022/05/10 07:05:54;;;;;;;;;23.25;22.00;;;;;18.76;56.28;101389.13;5015798;28;45475;-78
2022/05/10 07:08:19;;;;;;;;;22.25;22.25;;;;;18.76;56.52;101370.25;5013946;28;45662;-78
2022/05/10 07:10:44;;;;;;;;;23.50;22.00;;;;;18.89;56.06;101373.66;5014639;28;50178;-78
2022/05/10 07:13:15;;;;;;;;;25.75;21.50;;;;;19.00;55.83;101385.41;5015677;28;45366;-78
2022/05/10 07:15:40;;;;;;;;;23.75;22.50;;;;;19.07;56.02;101379.41;4998436;28;45361;-78
2022/05/10 07:18:06;;;;;;;;;22.25;21.25;;;;;19.04;55.65;101374.25;5015227;28;45353;-78
2022/05/10 07:20:31;;;;;;;;;24.50;21.50;;;;;19.13;55.64;101370.78;5015370;28;45875;-77
2022/05/10 07:22:56;;;;;;;;;21.75;19.25;;;;;19.23;55.14;101372.72;5015957;28;45298;-78
2022/05/10 07:25:24;;;;;;;;;20.50;19.50;;;;;19.30;55.68;101371.25;5015446;28;45291;-77
2022/05/10 07:27:49;;;;;;;;;25.00;23.75;;;;;19.41;55.49;101373.91;5015188;28;45363;-77
2022/05/10 07:30:14;;;;;;;;;22.00;20.75;;;;;19.36;55.12;101358.09;5015004;28;48859;-78
2022/05/10 07:32:40;;;;;;;;;24.25;22.25;;;;;19.51;54.96;101374.00;5015213;28;45308;-78
2022/05/10 07:35:06;;;;;;;;;23.75;22.75;;;;;19.54;54.42;101368.34;5015976;28;45420;-78
2022/05/10 07:37:34;;;;;;;;;22.75;19.75;;;;;19.52;54.79;101365.75;5014948;28;45385;-78
2022/05/10 07:40:01;;;;;;;;;19.00;17.00;;;;;19.51;54.32;101360.50;5014926;28;47043;-78
2022/05/10 07:42:26;;;;;;;;;22.50;22.50;;;;;19.56;54.37;101356.41;5015065;28;45415;-78
2022/05/10 07:44:51;;;;;;;;;22.25;20.25;;;;;19.74;54.03;101370.22;5014389;28;45420;-78
2022/05/10 07:47:18;;;;;;;;;21.25;18.00;;;;;19.79;54.02;101367.13;5015393;28;45357;-78
2022/05/10 07:49:43;;;;;;;;;21.50;20.75;;;;;19.85;54.38;101372.03;5015527;28;46170;-78
2022/05/10 07:52:09;;;;;;;;;20.00;18.50;;;;;19.88;54.19;101352.84;5015153;28;45428;-77
2022/05/10 07:54:36;;;;;;;;;21.50;21.00;;;;;19.90;53.82;101347.31;5014985;28;45451;-78
2022/05/10 07:57:03;;;;;;;;;22.75;21.00;;;;;20.06;53.84;101363.06;5013441;28;45504;-78
2022/05/10 07:59:29;;;;;;;;;21.00;20.75;;;;;20.00;53.32;101348.25;4996685;28;47564;-78
2022/05/10 08:01:54;;;;;;;;;22.00;22.00;;;;;20.02;53.74;101345.41;5015019;28;45385;-79
2022/05/10 08:04:20;;;;;;;;;15.75;15.75;;;;;20.06;53.17;101339.59;5014666;28;45426;-78
2022/05/10 08:06:46;;;;;;;;;19.50;18.00;;;;;20.19;53.22;101359.16;5014563;28;46788;-78
2022/05/10 08:09:12;;;;;;;;;17.50;17.25;;;;;20.29;53.43;101355.66;5014610;28;45409;-79
2022/05/10 08:11:39;;;;;;;;;17.75;16.25;;;;;20.17;52.87;101330.56;5015020;28;45401;-78
2022/05/10 08:14:04;;;;;;;;;22.75;21.75;;;;;20.29;53.04;101326.78;5011166;28;45440;-79
2022/05/10 08:16:32;;;;;;;;;18.00;17.50;;;;;20.47;52.82;101351.34;5014328;28;45578;-78
2022/05/10 08:18:58;;;;;;;;;18.00;17.50;;;;;20.47;52.00;101331.53;5014370;28;46052;-78
2022/05/10 08:21:23;;;;;;;;;19.50;18.75;;;;;20.72;50.96;101360.88;5014513;28;45387;-79
2022/05/10 08:23:52;;;;;;;;;17.25;16.00;;;;;20.75;51.69;101357.88;5014682;28;45393;-78
2022/05/10 08:26:20;;;;;;;;;17.00;14.00;;;;;20.76;51.23;101347.94;4997119;28;45532;-78
2022/05/10 08:28:45;;;;;;;;;17.75;17.75;;;;;20.73;50.39;101332.81;5014754;28;46357;-79
2022/05/10 08:31:11;;;;;;;;;11.25;9.25;;;;;20.94;50.94;101358.94;5013979;28;45417;-79
2022/05/10 08:33:38;;;;;;;;;15.50;15.25;;;;;21.06;50.31;101369.50;5014175;28;45452;-78
2022/05/10 08:36:06;;;;;;;;;16.25;15.25;;;;;21.14;50.43;101370.66;5014167;28;45566;-78
2022/05/10 08:38:32;;;;;;;;;17.50;16.25;;;;;21.14;50.25;101346.28;5014198;28;46529;-78
2022/05/10 08:41:13;;;;;;;;;14.75;12.75;;;;;21.20;49.38;101338.47;5015119;28;45286;-78
2022/05/10 08:43:48;;;;;;;;;12.50;12.50;;;;;21.40;49.17;101354.78;5014852;28;45482;-80
2022/05/10 08:46:16;;;;;;;;;17.25;15.25;;;;;21.46;48.98;101362.34;5013692;28;45579;-79
2022/05/10 08:48:45;;;;;;;;;16.25;14.50;;;;;21.50;48.68;101344.78;5014004;28;45760;-79
2022/05/10 08:51:12;;;;;;;;;16.00;15.00;;;;;21.52;48.54;101342.78;5014094;28;45438;-79
2022/05/10 08:53:37;;;;;;;;;16.00;16.00;;;;;21.51;47.86;101327.56;5014767;28;45346;-79
2022/05/10 08:56:14;;;;;;;;;14.50;14.50;;;;;21.72;48.34;101348.22;5015560;28;45353;-79
2022/05/10 08:58:54;;;;;;;;;16.25;15.25;;;;;21.75;47.34;101337.09;5018387;28;45452;-79
2022/05/10 09:01:28;;;;;;;;;16.50;16.50;;;;;21.86;47.88;101342.34;5017676;28;45380;-79
2022/05/10 09:04:23;;;;;;;;;19.75;18.75;;;;;21.74;47.38;101319.97;5017795;28;45480;-80
2022/05/10 09:07:05;;;;;;;;;12.75;12.50;;;;;22.03;46.39;101354.31;5017636;28;45555;-79
2022/05/10 09:09:49;;;;;;;;;14.75;14.75;;;;;22.07;46.01;101343.03;5017656;28;46213;-80
2022/05/10 09:12:21;;;;;;;;;17.50;16.00;;;;;22.03;46.00;101322.66;5017552;28;45420;-80
2022/05/10 09:14:52;;;;;;;;;17.25;15.00;;;;;22.33;45.29;101347.84;5017910;28;45618;-80
2022/05/10 09:17:19;;;;;;;;;13.50;13.50;;;;;22.43;45.56;101347.81;5017947;28;45346;-79
2022/05/10 09:19:44;;;;;;;;;14.25;12.75;;;;;22.54;44.38;101339.50;5016543;28;47629;-79
2022/05/10 09:22:28;;;;;;;;;17.25;13.75;;;;;22.69;43.97;101343.41;5016973;28;45388;-79
2022/05/10 09:24:56;;;;;;;;;11.75;11.75;;;;;22.72;44.20;101315.09;5017404;28;45381;-80
2022/05/10 09:27:28;;;;;;;;;12.50;12.50;;;;;23.01;43.08;101330.41;5017209;28;45377;-79
2022/05/10 09:29:53;;;;;;;;;10.75;10.75;;;;;23.17;42.92;101330.59;5017430;28;45369;-80
2022/05/10 09:35:19;;;;;;;;;12.25;12.25;;;;;23.46;43.04;101322.19;5014590;28;45396;-80
2022/05/10 09:38:06;;;;;;;;;14.75;13.50;;;;;23.58;42.02;101318.22;5017202;28;45471;-79
2022/05/10 09:40:36;;;;;;;;;12.75;12.75;;;;;23.67;41.54;101318.28;5017206;28;45620;-80
2022/05/10 09:43:15;;;;;;;;;15.25;12.50;;;;;23.59;41.17;101290.06;5016901;28;45682;-79
2022/05/10 09:45:41;;;;;;;;;17.25;14.25;;;;;23.86;41.50;101318.16;5017358;28;45337;-79
2022/05/10 09:48:07;;;;;;;;;11.75;11.75;;;;;23.96;41.38;101318.91;5016831;28;45389;-80
2022/05/10 09:50:34;;;;;;;;;12.00;12.00;;;;;23.95;40.32;101310.88;5017024;28;46202;-80
2022/05/10 09:53:11;;;;;;;;;11.50;10.25;;;;;24.07;40.37;101312.31;5017815;28;45386;-79
2022/05/10 09:55:37;;;;;;;;;11.25;10.75;;;;;24.11;39.32;101310.16;5017104;28;45644;-79
2022/05/10 09:58:15;;;;;;;;;12.00;12.00;;;;;23.92;39.01;101289.44;5016983;28;45399;-78
2022/05/10 10:00:51;;;;;;;;;12.25;12.25;;;;;24.13;39.40;101313.56;5016908;28;45467;-78
2022/05/10 10:03:37;;;;;;;;;14.00;13.00;;;;;24.08;39.63;101272.38;5016976;28;45504;-79
2022/05/10 10:06:21;;;;;;;;;11.75;11.25;;;;;24.30;38.96;101304.47;5016837;28;45298;-79
2022/05/10 10:08:48;;;;;;;;;10.50;10.00;;;;;24.33;38.49;101293.25;5002021;28;45378;-79
2022/05/10 10:11:23;;;;;;;;;9.25;9.25;;;;;24.43;39.16;101299.41;5015571;28;48111;-80
2022/05/10 10:13:55;;;;;;;;;16.00;14.00;;;;;24.42;39.66;101275.09;5017245;28;45282;-79
2022/05/10 10:16:24;;;;;;;;;10.75;10.00;;;;;24.64;39.17;101299.03;5016644;28;45451;-79
2022/05/10 10:18:59;;;;;;;;;17.50;14.25;;;;;24.68;38.63;101299.56;5016825;28;45578;-80
2022/05/10 10:21:32;;;;;;;;;13.75;12.75;;;;;24.75;38.17;101289.72;5016283;28;45376;-79
2022/05/10 10:23:59;;;;;;;;;9.75;9.50;;;;;24.76;38.00;101280.53;5016621;28;45286;-80
2022/05/10 10:26:27;;;;;;;;;13.00;13.00;;;;;24.94;38.01;101282.25;5016587;28;45207;-80
2022/05/10 10:29:04;;;;;;;;;11.00;11.00;;;;;25.00;37.61;101284.34;5016989;28;45503;-80
2022/05/10 10:31:35;;;;;;;;;14.00;12.00;;;;;25.04;37.61;101304.78;5016326;28;46260;-79
2022/05/10 10:34:10;;;;;;;;;11.75;10.00;;;;;24.93;38.16;101281.41;5016265;28;45527;-79
2022/05/10 10:37:13;;;;;;;;;12.25;12.25;;;;;25.05;38.02;101301.88;5016141;28;45301;-80
2022/05/10 10:40:07;;;;;;;;;15.00;14.00;;;;;25.01;37.44;101292.31;5016191;28;45444;-79
2022/05/10 10:42:48;;;;;;;;;10.75;10.75;;;;;25.05;37.28;101296.41;5016203;28;45472;-80
2022/05/10 10:45:15;;;;;;;;;12.00;12.00;;;;;25.24;37.03;101294.44;5016231;28;45481;-81
2022/05/10 10:47:50;;;;;;;;;10.50;9.50;;;;;25.34;35.72;101302.47;4998508;28;45400;-80
2022/05/10 10:50:24;;;;;;;;;9.75;8.25;;;;;25.35;36.38;101269.59;4998469;28;45484;-80
2022/05/10 10:52:50;;;;;;;;;13.50;11.00;;;;;25.52;34.77;101284.06;5014590;28;46159;-80
2022/05/10 10:55:21;;;;;;;;;10.25;10.25;;;;;25.52;35.37;101270.44;5016065;28;45428;-81
2022/05/10 10:58:12;;;;;;;;;10.00;10.00;;;;;25.82;35.52;101290.69;5016153;28;45691;-80
2022/05/10 11:00:54;;;;;;;;;13.25;10.50;;;;;25.84;34.72;101290.53;5016176;28;45357;-80
2022/05/10 11:03:34;;;;;;;;;11.00;11.00;;;;;26.00;35.36;101284.19;4997836;28;47306;-79
2022/05/10 11:06:13;;;;;;;;;11.75;10.25;;;;;26.17;34.58;101283.16;5015920;28;45574;-79
2022/05/10 11:08:49;;;;;;;;;9.00;9.00;;;;;26.30;34.14;101286.16;5000478;28;45526;-80
2022/05/10 11:11:17;;;;;;;;;11.00;11.00;;;;;26.47;34.52;101277.91;5013194;28;45512;-79
2022/05/10 11:14:20;;;;;;;;;10.00;9.25;;;;;26.60;33.55;101275.47;5015515;28;45328;-79
2022/05/10 11:17:16;;;;;;;;;12.50;11.00;;;;;26.65;33.33;101272.22;5015792;28;45455;-80
2022/05/10 11:20:15;;;;;;;;;11.50;11.50;;;;;26.72;32.85;101268.63;4996298;28;45605;-79
2022/05/10 11:22:58;;;;;;;;;15.25;14.00;;;;;26.76;33.01;101252.69;5014718;28;45518;-79
2022/05/10 11:25:42;;;;;;;;;17.75;17.75;;;;;26.76;33.55;101245.34;5014230;28;46200;-81
2022/05/10 11:28:26;;;;;;;;;15.50;11.75;;;;;26.76;33.68;101252.69;5015711;28;45431;-81
2022/05/10 11:31:09;;;;;;;;;10.00;10.00;;;;;26.84;33.84;101257.25;4997805;28;45458;-80